Time;durP1;ratioP1;P1;durP2;ratioP2;P2;SDS_P1;SDS_P2;PMS_P1;PMS_P2;Temp;Humidity;BMP_temperature;BMP_pressure;BME280_temperature;BME280_humidity;BME280_pressure;Samples;Min_cycle;Max_cycle;Signal;HPM_P1;HPM_P2
2022/04/03 00:01:20;;;;;;;3.38;3.08;;;17.00;42.40;;;;;;6189509;23;20199;-72
2022/04/03 00:03:47;;;;;;;3.10;2.90;;;17.00;42.30;;;;;;6189452;23;20176;-72
2022/04/03 00:06:14;;;;;;;3.10;2.90;;;16.90;42.40;;;;;;6189697;23;20191;-72
2022/04/03 00:08:43;;;;;;;2.85;2.65;;;16.90;42.30;;;;;;6216366;23;20228;-72
2022/04/03 00:11:10;;;;;;;3.45;3.22;;;16.90;42.40;;;;;;6189429;23;20198;-72
2022/04/03 00:13:37;;;;;;;3.22;3.03;;;16.90;43.00;;;;;;6189424;23;20183;-72
2022/04/03 00:16:05;;;;;;;3.33;3.03;;;16.90;42.40;;;;;;6189565;23;20540;-72
2022/04/03 00:18:32;;;;;;;3.00;2.80;;;16.80;42.30;;;;;;6189824;23;20206;-72
2022/04/03 00:20:59;;;;;;;3.50;3.20;;;16.80;42.40;;;;;;6215928;23;20242;-71
2022/04/03 00:23:26;;;;;;;3.20;3.00;;;16.80;42.30;;;;;;6189376;23;20167;-71
2022/04/03 00:25:56;;;;;;;3.30;3.00;;;16.80;42.40;;;;;;6215672;23;20170;-72
2022/04/03 00:28:26;;;;;;;3.40;3.10;;;16.80;42.40;;;;;;6216007;23;20160;-72
2022/04/03 00:30:53;;;;;;;2.92;2.72;;;16.80;42.50;;;;;;6189712;23;20546;-71
2022/04/03 00:33:20;;;;;;;3.50;3.20;;;16.70;42.30;;;;;;6189703;23;20175;-72
2022/04/03 00:35:50;;;;;;;3.33;3.13;;;16.70;42.30;;;;;;6189495;23;20175;-72
2022/04/03 00:38:17;;;;;;;3.35;3.05;;;16.70;42.40;;;;;;6189366;23;20250;-72
2022/04/03 00:40:45;;;;;;;3.38;3.08;;;16.70;42.20;;;;;;6189293;23;20168;-71
2022/04/03 00:43:13;;;;;;;3.42;3.20;;;16.70;42.90;;;;;;6189226;23;20179;-72
2022/04/03 00:45:43;;;;;;;3.45;3.15;;;16.70;42.40;;;;;;6215759;23;20213;-72
2022/04/03 00:48:11;;;;;;;3.13;2.92;;;16.70;42.50;;;;;;6215634;23;20171;-72
2022/04/03 00:50:38;;;;;;;3.08;2.88;;;16.70;42.50;;;;;;6189082;23;20172;-72
2022/04/03 00:53:05;;;;;;;3.28;3.08;;;16.60;42.40;;;;;;6189199;23;20737;-72
2022/04/03 00:55:32;;;;;;;3.40;3.13;;;16.60;42.40;;;;;;6189169;23;20230;-72
2022/04/03 00:58:00;;;;;;;3.15;2.95;;;16.60;42.40;;;;;;6188891;23;20196;-71
2022/04/03 01:00:28;;;;;;;3.45;3.25;;;16.60;42.50;;;;;;6189422;23;20175;-72
2022/04/03 01:02:56;;;;;;;3.05;2.85;;;16.60;42.50;;;;;;6189367;23;20171;-72
2022/04/03 01:05:23;;;;;;;4.32;3.03;;;16.60;42.40;;;;;;6191316;23;20175;-72
2022/04/03 01:07:50;;;;;;;3.42;3.13;;;16.60;42.60;;;;;;6191077;23;20194;-71
2022/04/03 01:10:17;;;;;;;3.10;2.80;;;16.60;42.50;;;;;;6192043;23;20695;-72
2022/04/03 01:12:45;;;;;;;3.22;2.97;;;16.50;43.00;;;;;;6191882;23;20580;-72
2022/04/03 01:15:14;;;;;;;3.53;3.22;;;16.60;42.50;;;;;;6192055;23;20182;-71
2022/04/03 01:17:44;;;;;;;3.20;3.00;;;16.50;42.40;;;;;;6192218;23;20215;-71
2022/04/03 01:20:11;;;;;;;3.05;2.85;;;16.50;42.50;;;;;;6191629;23;20687;-72
2022/04/03 01:22:39;;;;;;;3.60;3.20;;;16.50;42.40;;;;;;6220042;23;20243;-72
2022/04/03 01:25:09;;;;;;;3.45;3.22;;;16.50;42.50;;;;;;6196353;23;20175;-71
2022/04/03 01:27:36;;;;;;;3.58;3.28;;;16.50;42.50;;;;;;6191874;23;20278;-71
2022/04/03 01:30:04;;;;;;;3.40;3.10;;;16.50;42.50;;;;;;6192087;23;20172;-71
2022/04/03 01:32:31;;;;;;;3.30;3.03;;;16.50;42.60;;;;;;6219035;23;20266;-71
2022/04/03 01:34:58;;;;;;;3.40;3.20;;;16.50;42.60;;;;;;6218487;23;20195;-72
2022/04/03 01:37:25;;;;;;;3.30;3.10;;;16.50;42.50;;;;;;6217426;23;20191;-71
2022/04/03 01:39:53;;;;;;;3.53;3.15;;;16.40;42.50;;;;;;6191170;23;20178;-72
2022/04/03 01:42:21;;;;;;;3.20;3.00;;;16.40;42.50;;;;;;6190815;23;20179;-71
2022/04/03 01:44:48;;;;;;;3.65;3.30;;;16.40;42.30;;;;;;6190764;23;20198;-71
2022/04/03 01:47:15;;;;;;;3.83;3.53;;;16.40;42.30;;;;;;6190488;23;20199;-72
2022/04/03 01:49:42;;;;;;;3.38;3.08;;;16.40;42.30;;;;;;6190641;23;20171;-71
2022/04/03 01:52:09;;;;;;;3.60;3.30;;;16.40;42.20;;;;;;6217840;23;20254;-72
2022/04/03 01:54:36;;;;;;;3.47;3.17;;;16.40;42.30;;;;;;6190613;23;20658;-71
2022/04/03 01:57:04;;;;;;;3.03;2.83;;;16.40;42.30;;;;;;6190520;23;20202;-72
2022/04/03 01:59:32;;;;;;;3.95;3.55;;;16.40;42.30;;;;;;6190580;23;20175;-72
2022/04/03 02:01:59;;;;;;;3.53;3.22;;;16.40;42.30;;;;;;6190417;23;20259;-71
2022/04/03 02:04:26;;;;;;;3.63;3.33;;;16.40;42.30;;;;;;6191080;23;20175;-72
2022/04/03 02:06:53;;;;;;;3.35;3.05;;;16.40;42.30;;;;;;6217179;23;20191;-71
2022/04/03 02:09:21;;;;;;;3.72;3.42;;;16.30;42.20;;;;;;6190454;23;20172;-71
2022/04/03 02:11:48;;;;;;;3.70;3.30;;;16.30;42.20;;;;;;6190274;23;20242;-72
2022/04/03 02:14:15;;;;;;;3.63;3.33;;;16.30;42.10;;;;;;6217284;23;20634;-72
2022/04/03 02:16:43;;;;;;;3.85;3.55;;;16.30;42.20;;;;;;6190455;23;20731;-72
2022/04/03 02:19:10;;;;;;;3.85;3.55;;;16.30;42.20;;;;;;6190855;23;20171;-71
2022/04/03 02:21:37;;;;;;;3.90;3.60;;;16.30;42.20;;;;;;6191727;23;20193;-72
2022/04/03 02:26:59;;;;;;;3.30;3.10;;;16.30;42.30;;;;;;6187118;23;20279;-71
2022/04/03 02:29:26;;;;;;;3.10;2.90;;;16.30;42.20;;;;;;6160253;23;20176;-71
2022/04/03 02:31:55;;;;;;;3.72;3.42;;;16.30;42.30;;;;;;6187044;23;20200;-71
2022/04/03 02:34:22;;;;;;;3.60;3.30;;;16.30;42.20;;;;;;6186701;23;20168;-72
2022/04/03 02:36:49;;;;;;;3.30;3.10;;;16.20;42.10;;;;;;6186888;23;20188;-71
2022/04/03 02:39:16;;;;;;;3.45;3.15;;;16.30;42.20;;;;;;6160514;23;20176;-71
2022/04/03 02:41:43;;;;;;;3.40;3.10;;;16.20;42.00;;;;;;6186985;23;20477;-71
2022/04/03 02:44:10;;;;;;;3.65;3.33;;;16.20;42.10;;;;;;6160383;23;20176;-72
2022/04/03 02:46:37;;;;;;;3.85;3.35;;;16.20;42.10;;;;;;6160296;23;20215;-72
2022/04/03 02:49:08;;;;;;;4.03;3.72;;;16.20;42.10;;;;;;6160196;23;20176;-71
2022/04/03 02:51:35;;;;;;;3.53;3.22;;;16.20;42.30;;;;;;6185261;23;20172;-71
2022/04/03 02:54:02;;;;;;;3.40;3.10;;;16.20;42.30;;;;;;6160332;23;20227;-71
2022/04/03 02:56:29;;;;;;;3.42;3.22;;;16.20;42.20;;;;;;6184891;23;20192;-71
2022/04/03 02:58:56;;;;;;;3.30;3.00;;;16.10;42.10;;;;;;6184938;23;20560;-72
2022/04/03 03:01:23;;;;;;;3.10;2.90;;;16.20;42.30;;;;;;6160229;23;20223;-71
2022/04/03 03:03:51;;;;;;;4.43;2.90;;;16.20;42.10;;;;;;6184877;23;20258;-72
2022/04/03 03:06:19;;;;;;;3.30;3.05;;;16.10;41.90;;;;;;6160067;23;20196;-71
2022/04/03 03:08:46;;;;;;;4.00;3.70;;;16.10;42.00;;;;;;6186396;23;20164;-71
2022/04/03 03:11:13;;;;;;;3.75;3.45;;;16.10;42.10;;;;;;6160017;23;20176;-72
2022/04/03 03:13:40;;;;;;;3.40;3.10;;;16.10;42.10;;;;;;6184928;23;20275;-72
2022/04/03 03:16:07;;;;;;;3.53;3.22;;;16.10;42.00;;;;;;6184885;23;20192;-71
2022/04/03 03:18:34;;;;;;;3.80;3.50;;;16.10;42.10;;;;;;6186579;23;20171;-71
2022/04/03 03:21:01;;;;;;;3.60;3.30;;;16.10;42.10;;;;;;6186617;23;20267;-72
2022/04/03 03:23:30;;;;;;;3.50;3.30;;;16.10;42.10;;;;;;6160299;23;20179;-71
2022/04/03 03:25:57;;;;;;;3.22;3.03;;;16.10;42.10;;;;;;6185980;23;20199;-72
2022/04/03 03:28:24;;;;;;;3.72;3.40;;;16.10;42.30;;;;;;6159733;23;20539;-71
2022/04/03 03:30:51;;;;;;;3.92;3.60;;;16.10;42.50;;;;;;6184953;23;20226;-71
2022/04/03 03:33:17;;;;;;;3.90;3.60;;;16.10;42.40;;;;;;6184599;23;20192;-72
2022/04/03 03:35:44;;;;;;;4.30;3.90;;;16.10;42.10;;;;;;6185107;23;20183;-71
2022/04/03 03:38:12;;;;;;;3.83;3.53;;;16.10;41.90;;;;;;6159756;23;20659;-71
2022/04/03 03:40:41;;;;;;;3.90;3.60;;;16.10;41.90;;;;;;6159753;23;20175;-72
2022/04/03 03:43:09;;;;;;;3.88;3.58;;;16.20;41.80;;;;;;6184551;23;20172;-71
2022/04/03 03:45:36;;;;;;;4.10;3.78;;;16.20;41.80;;;;;;6185319;23;20174;-72
2022/04/03 03:48:03;;;;;;;3.83;3.53;;;16.20;41.70;;;;;;6186017;23;20218;-72
2022/04/03 03:50:30;;;;;;;3.67;3.47;;;16.20;41.70;;;;;;6159774;23;20592;-72
2022/04/03 03:52:57;;;;;;;3.92;3.63;;;16.20;41.70;;;;;;6185861;23;20531;-73
2022/04/03 03:55:24;;;;;;;3.70;3.40;;;16.20;41.70;;;;;;6184404;23;20179;-71
2022/04/03 03:57:52;;;;;;;3.60;3.30;;;16.30;42.20;;;;;;6186240;23;20656;-71
2022/04/03 04:00:20;;;;;;;3.53;3.22;;;16.30;41.70;;;;;;6159552;23;20718;-72
2022/04/03 04:02:47;;;;;;;4.15;3.75;;;16.30;42.20;;;;;;6159684;23;20223;-72
2022/04/03 04:05:14;;;;;;;3.50;3.30;;;16.30;41.70;;;;;;6159549;23;20182;-72
2022/04/03 04:07:41;;;;;;;3.53;3.22;;;16.30;41.50;;;;;;6186163;23;20526;-72
2022/04/03 04:10:09;;;;;;;3.80;3.50;;;16.30;41.70;;;;;;6159499;23;20171;-72
2022/04/03 04:12:36;;;;;;;3.58;3.28;;;16.30;41.90;;;;;;6159615;23;20223;-72
2022/04/03 04:15:05;;;;;;;3.25;3.00;;;16.30;41.60;;;;;;6159584;23;20179;-72
2022/04/03 04:17:34;;;;;;;3.60;3.40;;;16.30;41.50;;;;;;6186511;23;20290;-72
2022/04/03 04:20:01;;;;;;;3.47;3.17;;;16.30;41.30;;;;;;6184418;23;20230;-72
2022/04/03 04:22:28;;;;;;;3.70;3.40;;;16.30;41.20;;;;;;6185923;23;20255;-71
2022/04/03 04:24:55;;;;;;;3.50;3.20;;;16.40;41.20;;;;;;6185706;23;20165;-72
2022/04/03 04:27:22;;;;;;;3.53;3.33;;;16.40;41.20;;;;;;6184706;23;20576;-71
2022/04/03 04:29:50;;;;;;;3.40;2.97;;;16.40;41.00;;;;;;6159540;23;20178;-71
2022/04/03 04:32:21;;;;;;;3.40;3.20;;;16.40;41.00;;;;;;6184440;23;20199;-72
2022/04/03 04:34:48;;;;;;;2.90;2.70;;;16.50;41.00;;;;;;6184375;23;20161;-71
2022/04/03 04:37:16;;;;;;;3.45;3.15;;;16.50;40.90;;;;;;6184227;23;20679;-72
2022/04/03 04:39:43;;;;;;;3.75;3.45;;;16.50;41.50;;;;;;6186206;23;20570;-71
2022/04/03 04:42:10;;;;;;;3.60;3.30;;;16.50;40.70;;;;;;6187913;23;20251;-72
2022/04/03 04:44:37;;;;;;;3.55;3.25;;;16.60;40.60;;;;;;6161632;23;20624;-72
2022/04/03 04:47:05;;;;;;;3.40;3.20;;;16.60;40.60;;;;;;6186178;23;20207;-72
2022/04/03 04:49:33;;;;;;;3.78;3.47;;;16.60;40.40;;;;;;6161353;23;20176;-71
2022/04/03 04:52:00;;;;;;;3.83;3.53;;;16.60;40.80;;;;;;6186183;23;20176;-72
2022/04/03 04:54:27;;;;;;;3.85;3.55;;;16.70;40.10;;;;;;6186225;23;20208;-71
2022/04/03 04:56:55;;;;;;;4.38;4.07;;;16.70;40.00;;;;;;6187930;23;20184;-72
2022/04/03 04:59:22;;;;;;;3.95;3.65;;;16.70;40.00;;;;;;6161430;23;20222;-72
2022/04/03 05:01:49;;;;;;;3.42;3.22;;;16.80;39.90;;;;;;6161261;23;20209;-71
2022/04/03 05:04:16;;;;;;;3.47;3.20;;;16.80;40.00;;;;;;6161992;23;20191;-71
2022/04/03 05:06:44;;;;;;;4.03;3.40;;;16.80;39.70;;;;;;6161219;23;20239;-72
2022/04/03 05:09:11;;;;;;;3.67;3.47;;;16.80;39.70;;;;;;6186352;23;20176;-71
2022/04/03 05:11:39;;;;;;;3.70;3.40;;;16.90;39.80;;;;;;6186813;23;20251;-71
2022/04/03 05:14:07;;;;;;;3.40;3.10;;;16.90;39.70;;;;;;6161361;23;20196;-71
2022/04/03 05:16:34;;;;;;;3.90;3.60;;;16.90;39.60;;;;;;6161249;23;20188;-71
2022/04/03 05:19:01;;;;;;;3.60;3.40;;;17.00;39.60;;;;;;6186115;23;20183;-72
2022/04/03 05:21:28;;;;;;;3.70;3.40;;;17.00;39.50;;;;;;6186136;23;20255;-72
2022/04/03 05:23:56;;;;;;;3.55;3.25;;;17.00;39.40;;;;;;6161213;23;20628;-71
2022/04/03 05:26:23;;;;;;;3.60;3.30;;;17.00;39.30;;;;;;6161299;23;20204;-72
2022/04/03 05:28:50;;;;;;;3.45;3.20;;;17.00;39.10;;;;;;6161060;23;20517;-72
2022/04/03 05:31:17;;;;;;;3.33;3.03;;;17.10;39.30;;;;;;6161232;23;20605;-71
2022/04/03 05:33:45;;;;;;;3.35;3.08;;;17.10;38.90;;;;;;6161223;23;20529;-72
2022/04/03 05:36:12;;;;;;;3.83;3.53;;;17.10;38.90;;;;;;6185953;23;20200;-72
2022/04/03 05:38:39;;;;;;;3.45;3.15;;;17.10;39.00;;;;;;6187343;23;20235;-71
2022/04/03 05:41:08;;;;;;;3.78;3.45;;;17.10;38.90;;;;;;6160875;23;20239;-71
2022/04/03 05:43:35;;;;;;;3.53;3.22;;;17.10;38.80;;;;;;6186211;23;20172;-72
2022/04/03 05:46:02;;;;;;;3.80;3.50;;;17.20;39.00;;;;;;6186038;23;20198;-72
2022/04/03 05:48:30;;;;;;;3.22;3.03;;;17.20;38.90;;;;;;6160757;23;20176;-72
2022/04/03 05:50:57;;;;;;;3.67;3.38;;;17.20;38.90;;;;;;6186503;23;20573;-72
2022/04/03 05:53:24;;;;;;;3.63;3.33;;;17.20;38.70;;;;;;6160704;23;20199;-71
2022/04/03 05:55:51;;;;;;;3.50;3.20;;;17.20;38.90;;;;;;6187117;23;20161;-72
2022/04/03 05:58:19;;;;;;;3.30;3.10;;;17.20;38.80;;;;;;6160722;23;20176;-71
2022/04/03 06:00:46;;;;;;;3.50;3.20;;;17.20;39.00;;;;;;6187735;23;20164;-71
2022/04/03 06:03:14;;;;;;;3.40;3.15;;;17.30;38.90;;;;;;6160731;23;20172;-71
2022/04/03 06:05:41;;;;;;;3.60;3.30;;;17.30;38.80;;;;;;6187244;23;20475;-72
2022/04/03 06:08:08;;;;;;;3.58;3.28;;;17.30;38.50;;;;;;6185531;23;20518;-71
2022/04/03 06:10:35;;;;;;;3.40;3.10;;;17.30;38.60;;;;;;6160602;23;20505;-71
2022/04/03 06:13:04;;;;;;;3.95;3.65;;;17.40;38.60;;;;;;6185474;23;20666;-71
2022/04/03 06:15:34;;;;;;;3.38;3.08;;;17.40;38.60;;;;;;6185620;23;20502;-71
2022/04/03 06:18:01;;;;;;;3.30;3.10;;;17.40;38.60;;;;;;6186888;23;20191;-71
2022/04/03 06:20:28;;;;;;;3.03;2.83;;;17.50;38.60;;;;;;6187136;23;20244;-71
2022/04/03 06:22:55;;;;;;;3.33;3.13;;;17.50;38.50;;;;;;6160564;23;20168;-71
2022/04/03 06:25:22;;;;;;;3.10;2.90;;;17.50;38.20;;;;;;6160734;23;20202;-71
2022/04/03 06:27:49;;;;;;;3.20;3.00;;;17.50;38.30;;;;;;6160601;23;20278;-72
2022/04/03 06:30:16;;;;;;;3.20;3.00;;;17.50;38.20;;;;;;6185180;23;20176;-71
2022/04/03 06:32:45;;;;;;;3.30;3.00;;;17.60;38.00;;;;;;6185691;23;20692;-72
2022/04/03 06:35:12;;;;;;;3.20;2.90;;;17.60;37.80;;;;;;6162460;23;20247;-73
2022/04/03 06:37:39;;;;;;;3.33;3.13;;;17.70;37.90;;;;;;6161174;23;20196;-72
2022/04/03 06:40:07;;;;;;;3.13;2.92;;;17.70;38.00;;;;;;6160541;23;20200;-72
2022/04/03 06:42:35;;;;;;;3.25;3.05;;;17.70;37.60;;;;;;6160323;23;20175;-71
2022/04/03 06:45:02;;;;;;;3.10;2.90;;;17.80;37.70;;;;;;6160435;23;20526;-72
2022/04/03 06:50:20;;;;;;;3.15;2.95;;;17.80;37.70;;;;;;6188474;23;20235;-72
2022/04/03 06:52:47;;;;;;;2.88;2.67;;;17.90;37.50;;;;;;6160339;23;20518;-71
2022/04/03 06:55:14;;;;;;;3.03;2.83;;;17.90;37.30;;;;;;6160245;23;20176;-72
2022/04/03 06:57:41;;;;;;;3.10;2.90;;;18.00;37.40;;;;;;6160303;23;20582;-72
2022/04/03 07:00:09;;;;;;;2.75;2.55;;;18.00;37.30;;;;;;6184935;23;20664;-72
2022/04/03 07:02:36;;;;;;;3.10;2.90;;;18.10;37.30;;;;;;6184812;23;20172;-73
2022/04/03 07:05:04;;;;;;;3.22;3.03;;;18.10;37.20;;;;;;6186727;23;20164;-72
2022/04/03 07:07:33;;;;;;;3.22;2.97;;;18.20;37.10;;;;;;6186911;23;20498;-72
2022/04/03 07:10:00;;;;;;;2.85;2.65;;;18.20;36.80;;;;;;6184876;23;20192;-72
2022/04/03 07:12:27;;;;;;;3.30;3.10;;;18.30;36.70;;;;;;6184919;23;20176;-72
2022/04/03 07:14:56;;;;;;;3.20;2.90;;;18.30;36.70;;;;;;6184820;23;20230;-72
2022/04/03 07:17:23;;;;;;;2.90;2.70;;;18.40;36.70;;;;;;6185167;23;20524;-72
2022/04/03 07:19:50;;;;;;;3.08;2.88;;;18.40;36.70;;;;;;6184696;23;20539;-72
2022/04/03 07:22:17;;;;;;;2.88;2.63;;;18.50;36.40;;;;;;6184787;23;20199;-72
2022/04/03 07:24:45;;;;;;;3.25;2.67;;;18.50;36.20;;;;;;6185159;23;20247;-72
2022/04/03 07:27:12;;;;;;;3.90;3.00;;;18.60;36.60;;;;;;6186344;23;20168;-72
2022/04/03 07:29:39;;;;;;;2.67;2.55;;;18.60;36.10;;;;;;6184863;23;20192;-72
2022/04/03 07:32:07;;;;;;;3.25;2.95;;;18.60;35.90;;;;;;6184896;23;20179;-72
2022/04/03 07:34:34;;;;;;;2.95;2.75;;;18.70;36.00;;;;;;6185089;23;20287;-72
2022/04/03 07:37:02;;;;;;;2.80;2.60;;;18.70;36.00;;;;;;6184922;23;20182;-72
2022/04/03 07:39:30;;;;;;;2.90;2.70;;;18.70;36.20;;;;;;6184675;23;20195;-72
2022/04/03 07:41:59;;;;;;;2.75;2.55;;;18.70;36.20;;;;;;6186951;23;20243;-73
2022/04/03 07:44:26;;;;;;;2.97;2.78;;;18.80;36.20;;;;;;6184691;23;20549;-72
2022/04/03 07:46:53;;;;;;;2.92;2.72;;;18.80;35.90;;;;;;6184930;23;20634;-72
2022/04/03 07:49:20;;;;;;;3.20;3.00;;;18.80;35.70;;;;;;6202828;23;20206;-72
2022/04/03 07:51:48;;;;;;;3.13;2.83;;;18.90;36.10;;;;;;6215067;23;20171;-72
2022/04/03 07:54:15;;;;;;;2.90;2.70;;;18.90;36.40;;;;;;6215991;23;20234;-72
2022/04/03 07:56:42;;;;;;;3.13;2.88;;;18.90;35.80;;;;;;6214569;23;20172;-73
2022/04/03 07:59:10;;;;;;;2.80;2.60;;;18.90;35.50;;;;;;6219381;23;20194;-72
2022/04/03 08:01:38;;;;;;;3.20;2.90;;;18.90;35.50;;;;;;6219401;23;20175;-72
2022/04/03 08:04:05;;;;;;;3.75;3.00;;;18.90;35.50;;;;;;6214560;23;20566;-72
2022/04/03 08:06:32;;;;;;;2.92;2.72;;;18.90;35.60;;;;;;6214493;23;20182;-73
2022/04/03 08:08:59;;;;;;;2.60;2.40;;;18.90;35.50;;;;;;6214233;23;20191;-72
2022/04/03 08:11:26;;;;;;;2.80;2.60;;;18.90;35.30;;;;;;6214697;23;20175;-72
2022/04/03 08:13:53;;;;;;;3.42;2.63;;;18.90;35.50;;;;;;6215981;23;20190;-73
2022/04/03 08:16:21;;;;;;;2.72;2.53;;;18.90;35.70;;;;;;6214314;23;20270;-72
2022/04/03 08:18:49;;;;;;;2.83;2.63;;;18.90;35.50;;;;;;6216004;23;20188;-73
2022/04/03 08:21:18;;;;;;;2.83;2.63;;;18.90;35.80;;;;;;6215679;23;20178;-73
2022/04/03 08:23:45;;;;;;;2.65;2.45;;;18.90;35.80;;;;;;6216574;23;20650;-73
2022/04/03 08:26:12;;;;;;;2.88;2.67;;;19.00;35.90;;;;;;6214913;23;20182;-77
2022/04/03 08:28:39;;;;;;;2.60;2.40;;;19.00;35.50;;;;;;6214677;23;20586;-73
2022/04/03 08:31:06;;;;;;;2.85;2.65;;;19.00;35.80;;;;;;6216409;23;20167;-74
2022/04/03 08:33:34;;;;;;;3.65;2.55;;;19.00;35.90;;;;;;6216187;22;20210;-71
2022/04/03 08:36:03;;;;;;;2.75;2.55;;;19.00;36.20;;;;;;6220806;23;20257;-72
2022/04/03 08:38:30;;;;;;;3.05;2.75;;;19.00;35.90;;;;;;6211995;23;20342;-72
2022/04/03 08:40:57;;;;;;;3.03;2.80;;;19.00;35.90;;;;;;6217589;23;20168;-71
2022/04/03 08:43:24;;;;;;;3.25;2.60;;;19.00;35.40;;;;;;6221368;23;20186;-72
2022/04/03 08:45:53;;;;;;;3.78;2.53;;;19.00;35.90;;;;;;6197940;23;20500;-72
2022/04/03 08:48:20;;;;;;;3.00;2.80;;;19.00;36.40;;;;;;6191147;23;20217;-72
2022/04/03 08:50:50;;;;;;;174.45;93.90;;;19.10;36.60;;;;;;6190609;23;20527;-72
2022/04/03 08:53:17;;;;;;;178.52;95.75;;;19.20;38.30;;;;;;6190318;23;20195;-72
2022/04/03 08:55:44;;;;;;;133.45;80.82;;;19.40;41.10;;;;;;6230539;22;20191;-63
2022/04/03 08:58:11;;;;;;;116.93;71.35;;;19.60;40.90;;;;;;6219122;23;20170;-63
2022/04/03 09:00:38;;;;;;;121.22;68.20;;;19.90;40.00;;;;;;6246493;23;20167;-63
2022/04/03 09:03:06;;;;;;;113.88;67.93;;;20.20;39.80;;;;;;6214073;23;20268;-63
2022/04/03 09:05:37;;;;;;;105.80;68.13;;;20.50;39.40;;;;;;6215978;23;20604;-63
2022/04/03 09:08:07;;;;;;;93.15;61.10;;;20.70;39.50;;;;;;6215538;23;20175;-63
2022/04/03 09:10:34;;;;;;;88.55;54.80;;;20.80;39.00;;;;;;6215920;23;20167;-63
2022/04/03 09:13:01;;;;;;;86.47;55.65;;;20.80;39.00;;;;;;6220618;22;20226;-66
2022/04/03 09:15:29;;;;;;;78.10;49.05;;;20.80;38.90;;;;;;6189079;23;20196;-66
2022/04/03 09:17:57;;;;;;;84.40;48.00;;;20.70;38.40;;;;;;6189047;23;20195;-66
2022/04/03 09:20:25;;;;;;;71.72;45.72;;;20.70;38.20;;;;;;6189458;23;20176;-65
2022/04/03 09:22:54;;;;;;;67.50;42.65;;;20.60;39.00;;;;;;6215778;23;20242;-66
2022/04/03 09:25:26;;;;;;;63.05;43.58;;;20.60;38.60;;;;;;6217021;23;20547;-66
2022/04/03 09:27:53;;;;;;;58.08;39.30;;;20.50;38.70;;;;;;6218076;23;20226;-66
2022/04/03 09:32:57;;;;;;;55.70;38.22;;;20.40;39.10;;;;;;6218075;23;20251;-52
2022/04/03 09:35:26;;;;;;;56.58;37.45;;;20.40;38.40;;;;;;6217386;23;20225;-53
2022/04/03 09:38:10;;;;;;;51.80;35.40;;;20.40;38.90;;;;;;6215930;23;20198;-53
2022/04/03 09:40:40;;;;;;;54.55;34.95;;;20.30;38.80;;;;;;6217395;23;20156;-53
2022/04/03 09:43:18;;;;;;;51.22;34.47;;;20.30;38.50;;;;;;6216303;23;20198;-54
2022/04/03 09:45:46;;;;;;;50.40;32.75;;;20.30;38.60;;;;;;6217309;23;20234;-54
2022/04/03 09:48:29;;;;;;;46.95;32.22;;;20.30;38.40;;;;;;6220237;23;20195;-66
2022/04/03 09:51:02;;;;;;;49.78;32.45;;;20.30;38.90;;;;;;6221598;23;20412;-66
2022/04/03 09:53:30;;;;;;;48.08;31.58;;;20.20;38.40;;;;;;6207448;23;20218;-66
2022/04/03 09:55:58;;;;;;;45.60;30.38;;;20.20;38.50;;;;;;6232532;22;20198;-72
2022/04/03 09:58:25;;;;;;;41.78;28.20;;;20.10;38.70;;;;;;6201335;23;20191;-72
2022/04/03 10:00:52;;;;;;;36.35;24.70;;;20.00;38.30;;;;;;6191334;23;20238;-72
2022/04/03 10:03:19;;;;;;;34.03;24.63;;;20.00;38.10;;;;;;6218008;23;20171;-71
2022/04/03 10:08:24;;;;;;;31.13;20.20;;;19.90;37.60;;;;;;6215630;23;20187;-63
2022/04/03 10:14:06;;;;;;;26.42;18.42;;;19.80;37.50;;;;;;6187460;23;20203;-66
2022/04/03 10:16:33;;;;;;;25.75;17.85;;;19.70;37.40;;;;;;6188082;23;20479;-66
2022/04/03 10:19:00;;;;;;;22.40;16.27;;;19.60;37.40;;;;;;6186991;23;20215;-66
2022/04/03 10:21:30;;;;;;;21.35;15.82;;;19.70;37.60;;;;;;6160582;23;20654;-66
2022/04/03 10:23:59;;;;;;;21.10;15.05;;;19.60;37.20;;;;;;6160466;23;20192;-65
2022/04/03 10:26:26;;;;;;;19.38;14.02;;;19.60;37.40;;;;;;6187086;23;20164;-67
2022/04/03 10:28:55;;;;;;;18.83;12.98;;;19.60;37.20;;;;;;6187024;23;20164;-66
2022/04/03 10:31:23;;;;;;;18.88;13.10;;;19.50;37.40;;;;;;6187218;23;20176;-66
2022/04/03 10:33:51;;;;;;;16.20;12.00;;;19.50;37.40;;;;;;6160674;23;20279;-67
2022/04/03 10:36:25;;;;;;;20.58;12.63;;;19.40;37.30;;;;;;6160253;23;20251;-67
2022/04/03 10:38:59;;;;;;;18.92;11.95;;;19.40;37.30;;;;;;6164250;22;20203;-63
2022/04/03 10:44:15;;;;;;;16.58;10.20;;;19.40;37.00;;;;;;6224602;22;20203;-66
2022/04/03 10:47:21;;;;;;;13.25;9.95;;;19.40;36.70;;;;;;6190174;23;20194;-65
2022/04/03 10:49:50;;;;;;;15.70;10.05;;;19.40;37.10;;;;;;6095979;23;20576;-68
2022/04/03 10:52:24;;;;;;;13.27;8.90;;;19.30;37.10;;;;;;6175665;23;20599;-67
2022/04/03 10:54:52;;;;;;;14.35;9.05;;;19.30;36.90;;;;;;6190292;23;20187;-68
2022/04/03 10:57:36;;;;;;;12.30;8.50;;;19.30;36.80;;;;;;6190496;23;20558;-68
2022/04/03 11:00:35;;;;;;;13.90;8.20;;;19.30;36.60;;;;;;6190777;23;20223;-68
2022/04/03 11:03:32;;;;;;;10.57;7.32;;;19.30;36.40;;;;;;6190294;23;20191;-68
2022/04/03 11:06:14;;;;;;;10.07;7.07;;;19.20;36.50;;;;;;6190596;23;20171;-68
2022/04/03 11:08:43;;;;;;;11.88;7.03;;;19.20;36.40;;;;;;6217001;23;20229;-68
2022/04/03 11:11:10;;;;;;;10.25;7.28;;;19.20;36.70;;;;;;6190260;23;20231;-68
2022/04/03 11:13:42;;;;;;;13.13;7.32;;;19.20;36.70;;;;;;6190566;23;20658;-68
2022/04/03 11:16:10;;;;;;;9.32;6.32;;;19.20;36.50;;;;;;6190700;23;20298;-68
2022/04/03 11:18:39;;;;;;;8.07;6.20;;;19.20;36.40;;;;;;6191071;23;20213;-68
2022/04/03 11:21:11;;;;;;;9.52;6.72;;;19.20;36.10;;;;;;6190690;23;20627;-68
2022/04/03 11:23:39;;;;;;;9.18;5.95;;;19.20;36.40;;;;;;6217291;23;20195;-68
2022/04/03 11:26:06;;;;;;;9.50;5.63;;;19.30;36.40;;;;;;6217247;23;20169;-68
2022/04/03 11:28:34;;;;;;;10.27;5.60;;;19.40;36.60;;;;;;6190182;23;20179;-68
2022/04/03 11:31:02;;;;;;;9.13;5.78;;;19.40;36.40;;;;;;6216541;23;20159;-68
2022/04/03 11:33:29;;;;;;;7.55;5.10;;;19.40;36.30;;;;;;6190277;23;20270;-68
2022/04/03 11:36:02;;;;;;;9.73;5.60;;;19.40;36.50;;;;;;6189685;23;20219;-68
2022/04/03 11:38:34;;;;;;;7.88;5.00;;;19.40;36.80;;;;;;6210238;22;20715;-67
2022/04/03 11:41:03;;;;;;;8.05;4.93;;;19.50;37.00;;;;;;6221595;22;20211;-70
2022/04/03 11:43:30;;;;;;;10.70;4.50;;;19.50;36.80;;;;;;6221156;23;20565;-71
2022/04/03 11:45:57;;;;;;;6.75;4.75;;;19.50;37.10;;;;;;6220276;23;20182;-71
2022/04/03 11:48:26;;;;;;;8.15;4.78;;;19.50;36.70;;;;;;6199228;23;20573;-70
2022/04/03 11:51:08;;;;;;;7.57;4.68;;;19.60;36.80;;;;;;6190591;23;20182;-70
2022/04/03 11:53:35;;;;;;;5.30;4.22;;;19.60;36.90;;;;;;6192297;23;20205;-69
2022/04/03 11:56:07;;;;;;;7.28;4.75;;;19.70;37.40;;;;;;6190611;23;20191;-69
2022/04/03 11:59:01;;;;;;;5.70;4.03;;;19.70;37.50;;;;;;6191293;23;20226;-70
2022/04/03 12:01:29;;;;;;;7.68;4.20;;;19.80;37.40;;;;;;6190077;23;20254;-70
2022/04/03 12:04:02;;;;;;;6.72;4.20;;;19.90;37.30;;;;;;6206589;22;20662;-70
2022/04/03 12:06:32;;;;;;;7.40;4.47;;;19.90;36.60;;;;;;6214782;22;20203;-70
2022/04/03 12:08:59;;;;;;;8.02;4.45;;;19.80;36.40;;;;;;6217931;22;20183;-69
2022/04/03 12:11:27;;;;;;;6.95;3.72;;;19.80;36.20;;;;;;6189408;23;20220;-70
2022/04/03 12:13:55;;;;;;;6.90;4.03;;;19.80;35.70;;;;;;6189464;23;20722;-69
2022/04/03 12:16:24;;;;;;;8.32;3.95;;;19.80;36.00;;;;;;6189438;23;20183;-69
2022/04/03 12:18:54;;;;;;;6.97;3.80;;;19.80;36.10;;;;;;6204110;22;20255;-64
2022/04/03 12:21:22;;;;;;;6.22;3.80;;;19.80;36.50;;;;;;6228621;22;20304;-68
2022/04/03 12:32:01;;;;;;;5.82;3.00;;;19.70;37.20;;;;;;6186349;23;20187;-52
2022/04/03 12:37:12;;;;;;;5.97;3.05;;;19.80;36.90;;;;;;6277826;22;20178;-66
2022/04/03 12:39:41;;;;;;;8.75;3.38;;;19.70;36.40;;;;;;6241321;22;23880;-63
2022/04/03 12:42:13;;;;;;;5.10;3.33;;;19.80;37.00;;;;;;6216287;23;20222;-63
2022/04/03 12:44:45;;;;;;;8.93;3.47;;;19.80;37.40;;;;;;6189379;23;20199;-69
2022/04/03 12:47:15;;;;;;;5.15;3.10;;;19.70;37.30;;;;;;6216977;23;20167;-70
2022/04/03 12:49:45;;;;;;;6.05;3.30;;;19.70;37.40;;;;;;6211210;23;20267;-70
2022/04/03 12:52:13;;;;;;;4.72;3.10;;;19.80;36.50;;;;;;6164376;23;20202;-66
2022/04/03 12:54:43;;;;;;;4.10;2.80;;;19.70;36.40;;;;;;6160003;23;20192;-66
2022/04/03 13:00:14;;;;;;;4.15;2.90;;;19.70;35.80;;;;;;6160334;23;20184;-67
2022/04/03 13:02:45;;;;;;;5.07;2.88;;;19.70;36.20;;;;;;6194321;23;20244;-72
2022/04/03 13:05:15;;;;;;;3.60;2.60;;;19.70;36.10;;;;;;6193215;23;20191;-72
2022/04/03 13:07:44;;;;;;;3.97;2.88;;;19.70;36.30;;;;;;6208835;22;20633;-79
2022/04/03 13:10:16;;;;;;;4.80;2.80;;;19.70;36.00;;;;;;6218117;23;20217;-79
2022/04/03 13:12:45;;;;;;;6.28;3.25;;;19.70;35.60;;;;;;6225437;22;20198;-70
2022/04/03 13:15:12;;;;;;;3.08;2.75;;;19.70;36.40;;;;;;6278691;22;20261;-70
2022/04/03 13:17:39;;;;;;;3.92;2.92;;;19.70;35.50;;;;;;6246498;23;20495;-71
2022/04/03 13:20:09;;;;;;;3.55;2.50;;;19.70;34.80;;;;;;6246637;23;20170;-70